sensor_id;sensor_type;location;lat;lon;timestamp;P1;durP1;ratioP1;P2;durP2;ratioP2
69627;SDS011;56850;51.984;5.088;2024-01-30T00:01:58;9.43;;;8.00;;
69627;SDS011;56850;51.984;5.088;2024-01-30T00:04:25;10.20;;;8.15;;
69627;SDS011;56850;51.984;5.088;2024-01-30T00:06:52;8.75;;;7.50;;
69627;SDS011;56850;51.984;5.088;2024-01-30T00:09:19;10.73;;;8.30;;
69627;SDS011;56850;51.984;5.088;2024-01-30T00:11:46;9.93;;;8.38;;
69627;SDS011;56850;51.984;5.088;2024-01-30T00:14:13;9.45;;;7.93;;
69627;SDS011;56850;51.984;5.088;2024-01-30T00:16:40;11.23;;;7.70;;
69627;SDS011;56850;51.984;5.088;2024-01-30T00:19:07;10.20;;;8.43;;
69627;SDS011;56850;51.984;5.088;2024-01-30T00:21:35;9.83;;;7.97;;
69627;SDS011;56850;51.984;5.088;2024-01-30T00:24:02;11.35;;;8.15;;
69627;SDS011;56850;51.984;5.088;2024-01-30T00:26:28;9.30;;;7.53;;
69627;SDS011;56850;51.984;5.088;2024-01-30T00:28:55;11.25;;;8.10;;
69627;SDS011;56850;51.984;5.088;2024-01-30T00:31:22;10.40;;;7.88;;
69627;SDS011;56850;51.984;5.088;2024-01-30T00:33:49;8.93;;;7.53;;
69627;SDS011;56850;51.984;5.088;2024-01-30T00:36:16;10.02;;;7.55;;
69627;SDS011;56850;51.984;5.088;2024-01-30T00:38:43;9.93;;;7.72;;
69627;SDS011;56850;51.984;5.088;2024-01-30T00:41:10;10.88;;;7.90;;
69627;SDS011;56850;51.984;5.088;2024-01-30T00:43:37;9.85;;;7.82;;
69627;SDS011;56850;51.984;5.088;2024-01-30T00:46:07;10.27;;;7.53;;
69627;SDS011;56850;51.984;5.088;2024-01-30T00:48:34;9.43;;;7.93;;
69627;SDS011;56850;51.984;5.088;2024-01-30T00:51:01;10.55;;;8.15;;
69627;SDS011;56850;51.984;5.088;2024-01-30T00:53:31;10.50;;;7.70;;
69627;SDS011;56850;51.984;5.088;2024-01-30T00:55:58;9.48;;;7.93;;
69627;SDS011;56850;51.984;5.088;2024-01-30T00:58:25;8.70;;;7.23;;
69627;SDS011;56850;51.984;5.088;2024-01-30T01:00:52;9.23;;;7.50;;
69627;SDS011;56850;51.984;5.088;2024-01-30T01:03:19;11.27;;;7.80;;
69627;SDS011;56850;51.984;5.088;2024-01-30T01:05:46;9.60;;;6.72;;
69627;SDS011;56850;51.984;5.088;2024-01-30T01:08:13;10.05;;;8.10;;
69627;SDS011;56850;51.984;5.088;2024-01-30T01:10:41;9.97;;;7.57;;
69627;SDS011;56850;51.984;5.088;2024-01-30T01:13:08;8.45;;;6.60;;
69627;SDS011;56850;51.984;5.088;2024-01-30T01:15:35;9.82;;;7.85;;
69627;SDS011;56850;51.984;5.088;2024-01-30T01:18:03;12.10;;;7.43;;
69627;SDS011;56850;51.984;5.088;2024-01-30T01:20:30;10.00;;;8.20;;
69627;SDS011;56850;51.984;5.088;2024-01-30T01:22:57;8.37;;;7.37;;
69627;SDS011;56850;51.984;5.088;2024-01-30T01:25:24;8.65;;;7.25;;
69627;SDS011;56850;51.984;5.088;2024-01-30T01:27:51;9.50;;;7.53;;
69627;SDS011;56850;51.984;5.088;2024-01-30T01:30:19;9.38;;;7.47;;
69627;SDS011;56850;51.984;5.088;2024-01-30T01:32:48;10.40;;;7.80;;
69627;SDS011;56850;51.984;5.088;2024-01-30T01:35:24;9.83;;;7.27;;
69627;SDS011;56850;51.984;5.088;2024-01-30T01:37:54;9.07;;;6.75;;
69627;SDS011;56850;51.984;5.088;2024-01-30T01:40:25;10.00;;;7.60;;
69627;SDS011;56850;51.984;5.088;2024-01-30T01:42:53;8.60;;;6.85;;
69627;SDS011;56850;51.984;5.088;2024-01-30T01:45:21;10.43;;;7.88;;
69627;SDS011;56850;51.984;5.088;2024-01-30T01:47:50;8.43;;;6.83;;
69627;SDS011;56850;51.984;5.088;2024-01-30T01:50:18;9.52;;;7.47;;
69627;SDS011;56850;51.984;5.088;2024-01-30T01:52:47;9.10;;;6.93;;
69627;SDS011;56850;51.984;5.088;2024-01-30T01:55:15;7.97;;;6.47;;
69627;SDS011;56850;51.984;5.088;2024-01-30T01:57:46;9.43;;;6.57;;
69627;SDS011;56850;51.984;5.088;2024-01-30T02:00:14;10.23;;;6.90;;
69627;SDS011;56850;51.984;5.088;2024-01-30T02:02:42;7.88;;;6.72;;
69627;SDS011;56850;51.984;5.088;2024-01-30T02:05:11;8.77;;;6.75;;
69627;SDS011;56850;51.984;5.088;2024-01-30T02:07:38;8.90;;;6.80;;
69627;SDS011;56850;51.984;5.088;2024-01-30T02:10:08;9.82;;;6.82;;
69627;SDS011;56850;51.984;5.088;2024-01-30T02:12:38;9.83;;;7.07;;
69627;SDS011;56850;51.984;5.088;2024-01-30T02:15:06;9.65;;;7.28;;
69627;SDS011;56850;51.984;5.088;2024-01-30T02:17:34;8.15;;;6.78;;
69627;SDS011;56850;51.984;5.088;2024-01-30T02:20:01;9.05;;;6.80;;
69627;SDS011;56850;51.984;5.088;2024-01-30T02:22:29;9.07;;;7.00;;
69627;SDS011;56850;51.984;5.088;2024-01-30T02:24:58;11.10;;;6.70;;
69627;SDS011;56850;51.984;5.088;2024-01-30T02:27:26;9.38;;;7.00;;
69627;SDS011;56850;51.984;5.088;2024-01-30T02:29:55;8.80;;;6.75;;
69627;SDS011;56850;51.984;5.088;2024-01-30T02:32:22;8.60;;;7.18;;
69627;SDS011;56850;51.984;5.088;2024-01-30T02:34:49;9.90;;;7.55;;
69627;SDS011;56850;51.984;5.088;2024-01-30T02:37:16;9.43;;;7.20;;
69627;SDS011;56850;51.984;5.088;2024-01-30T02:39:43;7.90;;;6.38;;
69627;SDS011;56850;51.984;5.088;2024-01-30T02:42:10;10.20;;;6.30;;
69627;SDS011;56850;51.984;5.088;2024-01-30T02:44:38;8.65;;;6.88;;
69627;SDS011;56850;51.984;5.088;2024-01-30T02:47:05;8.35;;;6.50;;
69627;SDS011;56850;51.984;5.088;2024-01-30T02:49:32;8.37;;;6.83;;
69627;SDS011;56850;51.984;5.088;2024-01-30T02:51:59;8.38;;;6.18;;
69627;SDS011;56850;51.984;5.088;2024-01-30T02:54:30;8.15;;;6.68;;
69627;SDS011;56850;51.984;5.088;2024-01-30T02:56:57;8.73;;;6.45;;
69627;SDS011;56850;51.984;5.088;2024-01-30T02:59:24;7.90;;;7.10;;
69627;SDS011;56850;51.984;5.088;2024-01-30T03:01:51;8.30;;;6.37;;
69627;SDS011;56850;51.984;5.088;2024-01-30T03:04:18;8.85;;;6.22;;
69627;SDS011;56850;51.984;5.088;2024-01-30T03:06:45;9.30;;;7.45;;
69627;SDS011;56850;51.984;5.088;2024-01-30T03:09:16;7.82;;;6.55;;
69627;SDS011;56850;51.984;5.088;2024-01-30T03:11:44;7.70;;;6.28;;
69627;SDS011;56850;51.984;5.088;2024-01-30T03:14:11;7.63;;;6.20;;
69627;SDS011;56850;51.984;5.088;2024-01-30T03:16:38;8.65;;;6.13;;
69627;SDS011;56850;51.984;5.088;2024-01-30T03:19:07;10.50;;;6.70;;
69627;SDS011;56850;51.984;5.088;2024-01-30T03:21:35;7.78;;;6.32;;
69627;SDS011;56850;51.984;5.088;2024-01-30T03:24:02;9.25;;;7.30;;
69627;SDS011;56850;51.984;5.088;2024-01-30T03:26:30;8.63;;;6.60;;
69627;SDS011;56850;51.984;5.088;2024-01-30T03:28:57;7.97;;;6.78;;
69627;SDS011;56850;51.984;5.088;2024-01-30T03:31:23;7.55;;;5.93;;
69627;SDS011;56850;51.984;5.088;2024-01-30T03:33:51;7.68;;;6.07;;
69627;SDS011;56850;51.984;5.088;2024-01-30T03:36:18;9.00;;;6.28;;
69627;SDS011;56850;51.984;5.088;2024-01-30T03:38:48;7.70;;;6.37;;
69627;SDS011;56850;51.984;5.088;2024-01-30T03:41:15;9.05;;;6.43;;
69627;SDS011;56850;51.984;5.088;2024-01-30T03:43:41;10.30;;;6.82;;
69627;SDS011;56850;51.984;5.088;2024-01-30T03:46:08;9.43;;;6.70;;
69627;SDS011;56850;51.984;5.088;2024-01-30T03:48:36;8.52;;;6.28;;
69627;SDS011;56850;51.984;5.088;2024-01-30T03:51:03;9.80;;;6.80;;
69627;SDS011;56850;51.984;5.088;2024-01-30T03:53:30;8.50;;;7.25;;
69627;SDS011;56850;51.984;5.088;2024-01-30T03:55:57;8.00;;;6.70;;
69627;SDS011;56850;51.984;5.088;2024-01-30T03:58:24;8.05;;;6.95;;
69627;SDS011;56850;51.984;5.088;2024-01-30T04:00:51;8.40;;;6.53;;
69627;SDS011;56850;51.984;5.088;2024-01-30T04:03:18;8.60;;;6.87;;
69627;SDS011;56850;51.984;5.088;2024-01-30T04:05:45;9.88;;;7.18;;
69627;SDS011;56850;51.984;5.088;2024-01-30T04:08:12;8.13;;;6.40;;
69627;SDS011;56850;51.984;5.088;2024-01-30T04:10:39;10.10;;;6.82;;
69627;SDS011;56850;51.984;5.088;2024-01-30T04:13:06;9.25;;;6.50;;
69627;SDS011;56850;51.984;5.088;2024-01-30T04:15:38;8.53;;;6.40;;
69627;SDS011;56850;51.984;5.088;2024-01-30T04:18:19;10.48;;;7.07;;
69627;SDS011;56850;51.984;5.088;2024-01-30T04:20:46;10.10;;;7.43;;
69627;SDS011;56850;51.984;5.088;2024-01-30T04:23:15;8.45;;;6.47;;
69627;SDS011;56850;51.984;5.088;2024-01-30T04:25:42;8.43;;;6.72;;
69627;SDS011;56850;51.984;5.088;2024-01-30T04:28:09;8.37;;;6.47;;
69627;SDS011;56850;51.984;5.088;2024-01-30T04:30:38;8.93;;;6.47;;
69627;SDS011;56850;51.984;5.088;2024-01-30T04:33:08;9.20;;;6.75;;
69627;SDS011;56850;51.984;5.088;2024-01-30T04:35:36;9.20;;;6.93;;
69627;SDS011;56850;51.984;5.088;2024-01-30T04:38:03;9.35;;;6.97;;
69627;SDS011;56850;51.984;5.088;2024-01-30T04:40:30;9.03;;;6.87;;
69627;SDS011;56850;51.984;5.088;2024-01-30T04:42:57;9.10;;;6.72;;
69627;SDS011;56850;51.984;5.088;2024-01-30T04:45:24;10.57;;;7.03;;
69627;SDS011;56850;51.984;5.088;2024-01-30T04:47:51;8.30;;;6.78;;
69627;SDS011;56850;51.984;5.088;2024-01-30T04:50:18;8.30;;;6.25;;
69627;SDS011;56850;51.984;5.088;2024-01-30T04:52:45;7.97;;;6.80;;
69627;SDS011;56850;51.984;5.088;2024-01-30T04:55:12;9.55;;;7.05;;
69627;SDS011;56850;51.984;5.088;2024-01-30T04:57:39;8.38;;;6.45;;
69627;SDS011;56850;51.984;5.088;2024-01-30T05:00:06;8.00;;;6.55;;
69627;SDS011;56850;51.984;5.088;2024-01-30T05:02:33;9.88;;;6.95;;
69627;SDS011;56850;51.984;5.088;2024-01-30T05:05:00;8.80;;;6.37;;
69627;SDS011;56850;51.984;5.088;2024-01-30T05:07:27;9.98;;;6.45;;
69627;SDS011;56850;51.984;5.088;2024-01-30T05:09:54;8.02;;;6.50;;
69627;SDS011;56850;51.984;5.088;2024-01-30T05:12:24;8.90;;;6.32;;
69627;SDS011;56850;51.984;5.088;2024-01-30T05:14:51;9.30;;;6.57;;
69627;SDS011;56850;51.984;5.088;2024-01-30T05:17:18;8.83;;;6.40;;
69627;SDS011;56850;51.984;5.088;2024-01-30T05:19:45;9.93;;;6.70;;
69627;SDS011;56850;51.984;5.088;2024-01-30T05:22:12;10.65;;;6.30;;
69627;SDS011;56850;51.984;5.088;2024-01-30T05:24:44;9.48;;;6.47;;
69627;SDS011;56850;51.984;5.088;2024-01-30T05:27:11;10.73;;;6.70;;
69627;SDS011;56850;51.984;5.088;2024-01-30T05:29:40;10.67;;;6.70;;
69627;SDS011;56850;51.984;5.088;2024-01-30T05:32:09;9.65;;;6.55;;
69627;SDS011;56850;51.984;5.088;2024-01-30T05:34:37;9.13;;;6.35;;
69627;SDS011;56850;51.984;5.088;2024-01-30T05:37:04;8.02;;;6.75;;
69627;SDS011;56850;51.984;5.088;2024-01-30T05:39:31;9.57;;;6.63;;
69627;SDS011;56850;51.984;5.088;2024-01-30T05:41:59;9.23;;;6.50;;
69627;SDS011;56850;51.984;5.088;2024-01-30T05:44:26;9.18;;;6.85;;
69627;SDS011;56850;51.984;5.088;2024-01-30T05:46:53;8.77;;;6.22;;
69627;SDS011;56850;51.984;5.088;2024-01-30T05:49:20;8.65;;;6.30;;
69627;SDS011;56850;51.984;5.088;2024-01-30T05:51:47;9.48;;;6.50;;
69627;SDS011;56850;51.984;5.088;2024-01-30T05:54:14;8.70;;;6.10;;
69627;SDS011;56850;51.984;5.088;2024-01-30T05:56:43;9.43;;;6.35;;
69627;SDS011;56850;51.984;5.088;2024-01-30T05:59:10;9.75;;;6.55;;
69627;SDS011;56850;51.984;5.088;2024-01-30T06:01:37;10.55;;;6.43;;
69627;SDS011;56850;51.984;5.088;2024-01-30T06:04:11;8.80;;;6.68;;
69627;SDS011;56850;51.984;5.088;2024-01-30T06:06:38;10.37;;;6.87;;
69627;SDS011;56850;51.984;5.088;2024-01-30T06:09:05;9.82;;;6.75;;
69627;SDS011;56850;51.984;5.088;2024-01-30T06:11:32;8.90;;;6.72;;
69627;SDS011;56850;51.984;5.088;2024-01-30T06:13:59;12.38;;;6.93;;
69627;SDS011;56850;51.984;5.088;2024-01-30T06:16:26;8.60;;;6.43;;
69627;SDS011;56850;51.984;5.088;2024-01-30T06:18:56;8.93;;;6.23;;
69627;SDS011;56850;51.984;5.088;2024-01-30T06:21:23;10.23;;;7.10;;
69627;SDS011;56850;51.984;5.088;2024-01-30T06:23:50;10.32;;;6.38;;
69627;SDS011;56850;51.984;5.088;2024-01-30T06:26:17;8.88;;;6.57;;
69627;SDS011;56850;51.984;5.088;2024-01-30T06:28:44;8.90;;;6.55;;
69627;SDS011;56850;51.984;5.088;2024-01-30T06:31:11;7.93;;;6.20;;
69627;SDS011;56850;51.984;5.088;2024-01-30T06:33:38;9.13;;;6.13;;
69627;SDS011;56850;51.984;5.088;2024-01-30T06:36:05;9.20;;;6.10;;
69627;SDS011;56850;51.984;5.088;2024-01-30T06:38:32;8.63;;;6.28;;
69627;SDS011;56850;51.984;5.088;2024-01-30T06:40:59;10.85;;;6.50;;
69627;SDS011;56850;51.984;5.088;2024-01-30T06:43:26;11.47;;;6.17;;
69627;SDS011;56850;51.984;5.088;2024-01-30T06:45:53;8.75;;;6.63;;
69627;SDS011;56850;51.984;5.088;2024-01-30T06:48:20;10.98;;;6.25;;
69627;SDS011;56850;51.984;5.088;2024-01-30T06:50:47;9.23;;;6.60;;
69627;SDS011;56850;51.984;5.088;2024-01-30T06:53:15;8.95;;;6.00;;
69627;SDS011;56850;51.984;5.088;2024-01-30T06:55:45;10.83;;;6.57;;
69627;SDS011;56850;51.984;5.088;2024-01-30T06:58:13;9.48;;;6.85;;
69627;SDS011;56850;51.984;5.088;2024-01-30T07:00:42;7.97;;;6.25;;
69627;SDS011;56850;51.984;5.088;2024-01-30T07:03:09;8.82;;;6.53;;
69627;SDS011;56850;51.984;5.088;2024-01-30T07:05:36;9.40;;;6.07;;
69627;SDS011;56850;51.984;5.088;2024-01-30T07:08:06;9.57;;;6.30;;
69627;SDS011;56850;51.984;5.088;2024-01-30T07:10:37;8.63;;;6.65;;
69627;SDS011;56850;51.984;5.088;2024-01-30T07:13:04;9.02;;;5.85;;
69627;SDS011;56850;51.984;5.088;2024-01-30T07:15:33;11.82;;;6.53;;
69627;SDS011;56850;51.984;5.088;2024-01-30T07:18:06;8.68;;;6.65;;
69627;SDS011;56850;51.984;5.088;2024-01-30T07:21:00;9.43;;;6.23;;
69627;SDS011;56850;51.984;5.088;2024-01-30T07:23:27;10.07;;;6.60;;
69627;SDS011;56850;51.984;5.088;2024-01-30T07:25:58;9.02;;;6.45;;
69627;SDS011;56850;51.984;5.088;2024-01-30T07:28:28;9.35;;;6.47;;
69627;SDS011;56850;51.984;5.088;2024-01-30T07:31:04;9.55;;;6.45;;
69627;SDS011;56850;51.984;5.088;2024-01-30T07:33:34;9.17;;;6.27;;
69627;SDS011;56850;51.984;5.088;2024-01-30T07:36:07;8.43;;;6.00;;
69627;SDS011;56850;51.984;5.088;2024-01-30T07:38:40;8.77;;;6.30;;
69627;SDS011;56850;51.984;5.088;2024-01-30T07:41:07;8.95;;;6.72;;
69627;SDS011;56850;51.984;5.088;2024-01-30T07:43:34;11.68;;;6.40;;
69627;SDS011;56850;51.984;5.088;2024-01-30T07:46:02;9.77;;;6.43;;
69627;SDS011;56850;51.984;5.088;2024-01-30T07:48:35;8.52;;;5.78;;
69627;SDS011;56850;51.984;5.088;2024-01-30T07:51:05;9.98;;;6.28;;
69627;SDS011;56850;51.984;5.088;2024-01-30T07:53:32;12.65;;;7.60;;
69627;SDS011;56850;51.984;5.088;2024-01-30T07:55:59;8.40;;;6.72;;
69627;SDS011;56850;51.984;5.088;2024-01-30T07:58:29;11.73;;;7.23;;
69627;SDS011;56850;51.984;5.088;2024-01-30T08:00:59;13.70;;;6.95;;
69627;SDS011;56850;51.984;5.088;2024-01-30T08:03:27;9.45;;;6.40;;
69627;SDS011;56850;51.984;5.088;2024-01-30T08:06:02;10.40;;;6.70;;
69627;SDS011;56850;51.984;5.088;2024-01-30T08:08:35;10.20;;;6.40;;
69627;SDS011;56850;51.984;5.088;2024-01-30T08:11:05;10.67;;;6.83;;
69627;SDS011;56850;51.984;5.088;2024-01-30T08:13:35;11.48;;;6.90;;
69627;SDS011;56850;51.984;5.088;2024-01-30T08:16:02;9.18;;;6.90;;
69627;SDS011;56850;51.984;5.088;2024-01-30T08:18:31;9.40;;;6.57;;
69627;SDS011;56850;51.984;5.088;2024-01-30T08:20:59;10.10;;;6.75;;
69627;SDS011;56850;51.984;5.088;2024-01-30T08:23:26;13.37;;;6.80;;
69627;SDS011;56850;51.984;5.088;2024-01-30T08:25:53;9.05;;;6.30;;
69627;SDS011;56850;51.984;5.088;2024-01-30T08:28:26;12.63;;;6.47;;
69627;SDS011;56850;51.984;5.088;2024-01-30T08:30:53;8.10;;;6.47;;
69627;SDS011;56850;51.984;5.088;2024-01-30T08:33:20;10.90;;;6.95;;
69627;SDS011;56850;51.984;5.088;2024-01-30T08:35:47;8.27;;;6.47;;
69627;SDS011;56850;51.984;5.088;2024-01-30T08:38:14;9.07;;;6.75;;
69627;SDS011;56850;51.984;5.088;2024-01-30T08:40:44;9.95;;;6.75;;
69627;SDS011;56850;51.984;5.088;2024-01-30T08:43:11;11.95;;;6.30;;
69627;SDS011;56850;51.984;5.088;2024-01-30T08:45:39;11.25;;;7.00;;
69627;SDS011;56850;51.984;5.088;2024-01-30T08:48:06;8.97;;;6.40;;
69627;SDS011;56850;51.984;5.088;2024-01-30T08:50:34;10.45;;;7.00;;
69627;SDS011;56850;51.984;5.088;2024-01-30T08:53:01;10.55;;;6.15;;
69627;SDS011;56850;51.984;5.088;2024-01-30T08:55:28;13.13;;;6.18;;
69627;SDS011;56850;51.984;5.088;2024-01-30T08:57:56;9.90;;;6.32;;
69627;SDS011;56850;51.984;5.088;2024-01-30T09:00:25;9.90;;;6.33;;
69627;SDS011;56850;51.984;5.088;2024-01-30T09:02:52;13.82;;;7.53;;
69627;SDS011;56850;51.984;5.088;2024-01-30T09:08:26;12.98;;;7.43;;
69627;SDS011;56850;51.984;5.088;2024-01-30T09:10:53;12.15;;;6.95;;
69627;SDS011;56850;51.984;5.088;2024-01-30T09:13:23;11.50;;;7.73;;
69627;SDS011;56850;51.984;5.088;2024-01-30T09:15:50;11.77;;;6.43;;
69627;SDS011;56850;51.984;5.088;2024-01-30T09:18:18;14.07;;;7.60;;
69627;SDS011;56850;51.984;5.088;2024-01-30T09:20:45;12.25;;;6.90;;
69627;SDS011;56850;51.984;5.088;2024-01-30T09:23:13;12.88;;;7.57;;
69627;SDS011;56850;51.984;5.088;2024-01-30T09:25:40;14.83;;;7.80;;
69627;SDS011;56850;51.984;5.088;2024-01-30T09:28:10;14.80;;;10.20;;
69627;SDS011;56850;51.984;5.088;2024-01-30T09:30:37;14.82;;;7.82;;
69627;SDS011;56850;51.984;5.088;2024-01-30T09:33:04;12.23;;;7.38;;
69627;SDS011;56850;51.984;5.088;2024-01-30T09:35:32;15.73;;;7.55;;
69627;SDS011;56850;51.984;5.088;2024-01-30T09:37:59;12.57;;;7.57;;
69627;SDS011;56850;51.984;5.088;2024-01-30T09:40:29;11.55;;;6.97;;
69627;SDS011;56850;51.984;5.088;2024-01-30T09:43:00;11.93;;;7.40;;
69627;SDS011;56850;51.984;5.088;2024-01-30T09:45:30;12.25;;;7.32;;
69627;SDS011;56850;51.984;5.088;2024-01-30T09:48:01;11.32;;;6.57;;
69627;SDS011;56850;51.984;5.088;2024-01-30T09:50:32;11.03;;;6.90;;
69627;SDS011;56850;51.984;5.088;2024-01-30T09:53:02;17.23;;;7.68;;
69627;SDS011;56850;51.984;5.088;2024-01-30T09:55:31;11.57;;;6.88;;
69627;SDS011;56850;51.984;5.088;2024-01-30T09:57:58;10.55;;;6.97;;
69627;SDS011;56850;51.984;5.088;2024-01-30T10:00:31;11.25;;;6.72;;
69627;SDS011;56850;51.984;5.088;2024-01-30T10:03:01;13.57;;;7.40;;
69627;SDS011;56850;51.984;5.088;2024-01-30T10:05:31;10.63;;;6.90;;
69627;SDS011;56850;51.984;5.088;2024-01-30T10:08:09;12.68;;;7.18;;
69627;SDS011;56850;51.984;5.088;2024-01-30T10:10:37;10.82;;;6.53;;
69627;SDS011;56850;51.984;5.088;2024-01-30T10:13:04;12.38;;;6.63;;
69627;SDS011;56850;51.984;5.088;2024-01-30T10:15:35;10.50;;;6.83;;
69627;SDS011;56850;51.984;5.088;2024-01-30T10:18:05;11.15;;;6.72;;
69627;SDS011;56850;51.984;5.088;2024-01-30T10:20:33;10.45;;;6.82;;
69627;SDS011;56850;51.984;5.088;2024-01-30T10:23:02;13.50;;;6.40;;
69627;SDS011;56850;51.984;5.088;2024-01-30T10:25:33;17.48;;;7.22;;
69627;SDS011;56850;51.984;5.088;2024-01-30T10:28:00;12.57;;;7.43;;
69627;SDS011;56850;51.984;5.088;2024-01-30T10:30:27;33.08;;;8.65;;
69627;SDS011;56850;51.984;5.088;2024-01-30T10:32:54;16.35;;;7.45;;
69627;SDS011;56850;51.984;5.088;2024-01-30T10:35:21;16.75;;;7.07;;
69627;SDS011;56850;51.984;5.088;2024-01-30T10:37:48;14.07;;;7.32;;
69627;SDS011;56850;51.984;5.088;2024-01-30T10:40:15;17.70;;;7.50;;
69627;SDS011;56850;51.984;5.088;2024-01-30T10:42:43;16.50;;;7.68;;
69627;SDS011;56850;51.984;5.088;2024-01-30T10:45:12;11.57;;;6.65;;
69627;SDS011;56850;51.984;5.088;2024-01-30T10:47:40;13.88;;;6.55;;
69627;SDS011;56850;51.984;5.088;2024-01-30T10:50:10;12.15;;;6.72;;
69627;SDS011;56850;51.984;5.088;2024-01-30T10:52:37;15.73;;;7.10;;
69627;SDS011;56850;51.984;5.088;2024-01-30T10:55:08;13.00;;;7.13;;
69627;SDS011;56850;51.984;5.088;2024-01-30T10:57:36;11.85;;;6.88;;
69627;SDS011;56850;51.984;5.088;2024-01-30T11:00:04;10.45;;;6.93;;
69627;SDS011;56850;51.984;5.088;2024-01-30T11:02:40;9.75;;;6.03;;
69627;SDS011;56850;51.984;5.088;2024-01-30T11:05:11;11.37;;;6.63;;
69627;SDS011;56850;51.984;5.088;2024-01-30T11:07:39;10.38;;;6.53;;
69627;SDS011;56850;51.984;5.088;2024-01-30T11:10:09;10.93;;;6.25;;
69627;SDS011;56850;51.984;5.088;2024-01-30T11:12:41;13.13;;;5.90;;
69627;SDS011;56850;51.984;5.088;2024-01-30T11:15:12;10.52;;;5.03;;
69627;SDS011;56850;51.984;5.088;2024-01-30T11:20:29;10.43;;;4.70;;
69627;SDS011;56850;51.984;5.088;2024-01-30T11:22:58;7.72;;;4.95;;
69627;SDS011;56850;51.984;5.088;2024-01-30T11:25:25;10.50;;;4.78;;
69627;SDS011;56850;51.984;5.088;2024-01-30T11:27:54;6.90;;;4.95;;
69627;SDS011;56850;51.984;5.088;2024-01-30T11:30:23;10.20;;;4.30;;
69627;SDS011;56850;51.984;5.088;2024-01-30T11:33:00;7.82;;;4.10;;
69627;SDS011;56850;51.984;5.088;2024-01-30T11:35:36;6.78;;;4.22;;
69627;SDS011;56850;51.984;5.088;2024-01-30T11:38:06;6.18;;;4.07;;
69627;SDS011;56850;51.984;5.088;2024-01-30T11:40:42;7.25;;;3.33;;
69627;SDS011;56850;51.984;5.088;2024-01-30T11:43:10;6.03;;;3.27;;
69627;SDS011;56850;51.984;5.088;2024-01-30T11:45:37;7.47;;;4.03;;
69627;SDS011;56850;51.984;5.088;2024-01-30T11:48:06;5.93;;;2.97;;
69627;SDS011;56850;51.984;5.088;2024-01-30T11:50:37;6.75;;;2.75;;
69627;SDS011;56850;51.984;5.088;2024-01-30T11:53:04;6.88;;;2.70;;
69627;SDS011;56850;51.984;5.088;2024-01-30T11:55:34;7.70;;;3.00;;
69627;SDS011;56850;51.984;5.088;2024-01-30T11:58:04;4.43;;;3.10;;
69627;SDS011;56850;51.984;5.088;2024-01-30T12:00:33;6.80;;;3.55;;
69627;SDS011;56850;51.984;5.088;2024-01-30T12:03:01;7.20;;;2.92;;
69627;SDS011;56850;51.984;5.088;2024-01-30T12:05:30;6.60;;;2.75;;
69627;SDS011;56850;51.984;5.088;2024-01-30T12:07:57;4.67;;;2.93;;
69627;SDS011;56850;51.984;5.088;2024-01-30T12:10:28;6.55;;;2.67;;
69627;SDS011;56850;51.984;5.088;2024-01-30T12:12:56;4.88;;;3.03;;
69627;SDS011;56850;51.984;5.088;2024-01-30T12:15:26;4.43;;;2.70;;
69627;SDS011;56850;51.984;5.088;2024-01-30T12:18:03;6.30;;;3.25;;
69627;SDS011;56850;51.984;5.088;2024-01-30T12:20:31;7.83;;;2.20;;
69627;SDS011;56850;51.984;5.088;2024-01-30T12:22:58;6.97;;;2.58;;
69627;SDS011;56850;51.984;5.088;2024-01-30T12:25:26;9.02;;;2.28;;
69627;SDS011;56850;51.984;5.088;2024-01-30T12:27:53;7.72;;;2.38;;
69627;SDS011;56850;51.984;5.088;2024-01-30T12:30:20;6.20;;;2.40;;
69627;SDS011;56850;51.984;5.088;2024-01-30T12:32:50;8.80;;;2.43;;
69627;SDS011;56850;51.984;5.088;2024-01-30T12:35:18;9.57;;;2.42;;
69627;SDS011;56850;51.984;5.088;2024-01-30T12:37:47;5.35;;;2.10;;
69627;SDS011;56850;51.984;5.088;2024-01-30T12:40:15;5.28;;;1.70;;
69627;SDS011;56850;51.984;5.088;2024-01-30T12:42:43;3.97;;;1.80;;
69627;SDS011;56850;51.984;5.088;2024-01-30T12:45:15;5.10;;;2.10;;
69627;SDS011;56850;51.984;5.088;2024-01-30T12:47:46;7.72;;;2.15;;
69627;SDS011;56850;51.984;5.088;2024-01-30T12:50:14;5.03;;;2.63;;
69627;SDS011;56850;51.984;5.088;2024-01-30T12:52:42;5.70;;;2.08;;
69627;SDS011;56850;51.984;5.088;2024-01-30T12:55:12;6.40;;;2.20;;
69627;SDS011;56850;51.984;5.088;2024-01-30T12:57:39;5.60;;;2.00;;
69627;SDS011;56850;51.984;5.088;2024-01-30T13:00:06;6.88;;;2.08;;
69627;SDS011;56850;51.984;5.088;2024-01-30T13:02:37;5.97;;;1.92;;
69627;SDS011;56850;51.984;5.088;2024-01-30T13:05:04;3.53;;;1.90;;
69627;SDS011;56850;51.984;5.088;2024-01-30T13:07:31;5.53;;;1.60;;
69627;SDS011;56850;51.984;5.088;2024-01-30T13:09:58;4.33;;;2.00;;
69627;SDS011;56850;51.984;5.088;2024-01-30T13:12:30;4.78;;;2.05;;
69627;SDS011;56850;51.984;5.088;2024-01-30T13:15:01;7.85;;;1.90;;
69627;SDS011;56850;51.984;5.088;2024-01-30T13:17:30;3.95;;;1.50;;
69627;SDS011;56850;51.984;5.088;2024-01-30T13:19:57;4.55;;;1.88;;
69627;SDS011;56850;51.984;5.088;2024-01-30T13:22:36;4.20;;;2.00;;
69627;SDS011;56850;51.984;5.088;2024-01-30T13:25:05;6.00;;;1.95;;
69627;SDS011;56850;51.984;5.088;2024-01-30T13:27:34;3.50;;;1.45;;
69627;SDS011;56850;51.984;5.088;2024-01-30T13:30:01;3.13;;;1.63;;
69627;SDS011;56850;51.984;5.088;2024-01-30T13:32:28;4.20;;;1.48;;
69627;SDS011;56850;51.984;5.088;2024-01-30T13:34:55;3.63;;;1.70;;
69627;SDS011;56850;51.984;5.088;2024-01-30T13:37:23;3.50;;;1.20;;
69627;SDS011;56850;51.984;5.088;2024-01-30T13:39:53;2.13;;;1.20;;
69627;SDS011;56850;51.984;5.088;2024-01-30T13:42:20;8.50;;;1.38;;
69627;SDS011;56850;51.984;5.088;2024-01-30T13:44:46;2.75;;;1.40;;
69627;SDS011;56850;51.984;5.088;2024-01-30T13:47:16;3.50;;;1.40;;
69627;SDS011;56850;51.984;5.088;2024-01-30T13:49:45;2.88;;;1.17;;
69627;SDS011;56850;51.984;5.088;2024-01-30T13:52:14;3.28;;;1.55;;
69627;SDS011;56850;51.984;5.088;2024-01-30T13:54:42;1.85;;;1.40;;
69627;SDS011;56850;51.984;5.088;2024-01-30T13:57:09;3.13;;;1.63;;
69627;SDS011;56850;51.984;5.088;2024-01-30T13:59:37;3.67;;;1.70;;
69627;SDS011;56850;51.984;5.088;2024-01-30T14:02:05;6.47;;;1.50;;
69627;SDS011;56850;51.984;5.088;2024-01-30T14:04:34;6.00;;;1.67;;
69627;SDS011;56850;51.984;5.088;2024-01-30T14:07:04;2.60;;;1.23;;
69627;SDS011;56850;51.984;5.088;2024-01-30T14:09:32;8.10;;;1.58;;
69627;SDS011;56850;51.984;5.088;2024-01-30T14:12:00;3.77;;;1.50;;
69627;SDS011;56850;51.984;5.088;2024-01-30T14:14:27;7.07;;;1.70;;
69627;SDS011;56850;51.984;5.088;2024-01-30T14:16:54;5.43;;;1.90;;
69627;SDS011;56850;51.984;5.088;2024-01-30T14:19:21;7.03;;;1.98;;
69627;SDS011;56850;51.984;5.088;2024-01-30T14:21:48;5.85;;;1.30;;
69627;SDS011;56850;51.984;5.088;2024-01-30T14:24:18;4.83;;;2.00;;
69627;SDS011;56850;51.984;5.088;2024-01-30T14:26:45;3.90;;;1.55;;
69627;SDS011;56850;51.984;5.088;2024-01-30T14:29:13;6.15;;;1.92;;
69627;SDS011;56850;51.984;5.088;2024-01-30T14:31:42;3.80;;;1.92;;
69627;SDS011;56850;51.984;5.088;2024-01-30T14:34:09;3.97;;;2.22;;
69627;SDS011;56850;51.984;5.088;2024-01-30T14:36:37;3.57;;;1.97;;
69627;SDS011;56850;51.984;5.088;2024-01-30T14:39:04;5.85;;;1.98;;
69627;SDS011;56850;51.984;5.088;2024-01-30T14:41:33;3.47;;;1.95;;
69627;SDS011;56850;51.984;5.088;2024-01-30T14:44:00;4.40;;;2.10;;
69627;SDS011;56850;51.984;5.088;2024-01-30T14:46:27;5.20;;;2.00;;
69627;SDS011;56850;51.984;5.088;2024-01-30T14:48:54;5.50;;;1.87;;
69627;SDS011;56850;51.984;5.088;2024-01-30T14:51:21;5.43;;;1.60;;
69627;SDS011;56850;51.984;5.088;2024-01-30T14:53:48;5.75;;;2.15;;
69627;SDS011;56850;51.984;5.088;2024-01-30T14:56:15;4.90;;;1.83;;